sensor_id;sensor_type;location;lat;lon;timestamp;temperature;humidity
67870;DHT22;54673;52.262;6.830;2023-05-07T00:01:07;21.30;53.50
67870;DHT22;54673;52.262;6.830;2023-05-07T00:03:33;21.30;53.50
67870;DHT22;54673;52.262;6.830;2023-05-07T00:05:58;21.20;53.50
67870;DHT22;54673;52.262;6.830;2023-05-07T00:08:24;21.20;53.50
67870;DHT22;54673;52.262;6.830;2023-05-07T00:10:50;21.20;53.50
67870;DHT22;54673;52.262;6.830;2023-05-07T00:13:15;21.20;53.50
67870;DHT22;54673;52.262;6.830;2023-05-07T00:15:41;21.20;53.60
67870;DHT22;54673;52.262;6.830;2023-05-07T00:18:06;21.20;53.50
67870;DHT22;54673;52.262;6.830;2023-05-07T00:20:32;21.20;53.60
67870;DHT22;54673;52.262;6.830;2023-05-07T00:22:57;21.20;53.50
67870;DHT22;54673;52.262;6.830;2023-05-07T00:25:23;21.20;53.50
67870;DHT22;54673;52.262;6.830;2023-05-07T00:27:48;21.20;53.60
67870;DHT22;54673;52.262;6.830;2023-05-07T00:30:14;21.20;53.60
67870;DHT22;54673;52.262;6.830;2023-05-07T00:32:40;21.20;53.50
67870;DHT22;54673;52.262;6.830;2023-05-07T00:35:06;21.20;53.50
67870;DHT22;54673;52.262;6.830;2023-05-07T00:37:32;21.20;53.50
67870;DHT22;54673;52.262;6.830;2023-05-07T00:39:58;21.20;53.50
67870;DHT22;54673;52.262;6.830;2023-05-07T00:42:23;21.20;53.50
67870;DHT22;54673;52.262;6.830;2023-05-07T00:44:49;21.20;53.50
67870;DHT22;54673;52.262;6.830;2023-05-07T00:47:15;21.20;53.60
67870;DHT22;54673;52.262;6.830;2023-05-07T00:49:42;21.20;53.50
67870;DHT22;54673;52.262;6.830;2023-05-07T00:52:11;21.20;53.70
67870;DHT22;54673;52.262;6.830;2023-05-07T00:54:37;21.20;53.70
67870;DHT22;54673;52.262;6.830;2023-05-07T00:57:03;21.20;53.60
67870;DHT22;54673;52.262;6.830;2023-05-07T00:59:30;21.20;53.70
67870;DHT22;54673;52.262;6.830;2023-05-07T01:01:56;21.20;53.70
67870;DHT22;54673;52.262;6.830;2023-05-07T01:04:21;21.20;53.70
67870;DHT22;54673;52.262;6.830;2023-05-07T01:06:47;21.20;53.70
67870;DHT22;54673;52.262;6.830;2023-05-07T01:09:12;21.20;53.70
67870;DHT22;54673;52.262;6.830;2023-05-07T01:11:39;21.20;53.70
67870;DHT22;54673;52.262;6.830;2023-05-07T01:14:06;21.20;53.70
67870;DHT22;54673;52.262;6.830;2023-05-07T01:16:32;21.20;53.80
67870;DHT22;54673;52.262;6.830;2023-05-07T01:18:58;21.20;53.70
67870;DHT22;54673;52.262;6.830;2023-05-07T01:21:26;21.10;53.70
67870;DHT22;54673;52.262;6.830;2023-05-07T01:23:54;21.20;53.70
67870;DHT22;54673;52.262;6.830;2023-05-07T01:26:20;21.20;53.80
67870;DHT22;54673;52.262;6.830;2023-05-07T01:28:47;21.20;53.80
67870;DHT22;54673;52.262;6.830;2023-05-07T01:31:13;21.10;53.70
67870;DHT22;54673;52.262;6.830;2023-05-07T01:33:40;21.10;53.80
67870;DHT22;54673;52.262;6.830;2023-05-07T01:36:08;21.20;53.90
67870;DHT22;54673;52.262;6.830;2023-05-07T01:38:37;21.20;53.90
67870;DHT22;54673;52.262;6.830;2023-05-07T01:41:04;21.10;53.90
67870;DHT22;54673;52.262;6.830;2023-05-07T01:43:30;21.10;53.90
67870;DHT22;54673;52.262;6.830;2023-05-07T01:45:57;21.10;53.90
67870;DHT22;54673;52.262;6.830;2023-05-07T01:48:24;21.10;53.90
67870;DHT22;54673;52.262;6.830;2023-05-07T01:50:51;21.10;53.90
67870;DHT22;54673;52.262;6.830;2023-05-07T01:53:16;21.10;53.90
67870;DHT22;54673;52.262;6.830;2023-05-07T01:55:42;21.20;53.90
67870;DHT22;54673;52.262;6.830;2023-05-07T01:58:08;21.10;53.90
67870;DHT22;54673;52.262;6.830;2023-05-07T02:00:33;21.10;53.90
67870;DHT22;54673;52.262;6.830;2023-05-07T02:02:59;21.30;54.00
67870;DHT22;54673;52.262;6.830;2023-05-07T02:05:25;21.10;53.90
67870;DHT22;54673;52.262;6.830;2023-05-07T02:07:50;21.10;53.90
67870;DHT22;54673;52.262;6.830;2023-05-07T02:10:16;21.10;53.90
67870;DHT22;54673;52.262;6.830;2023-05-07T02:12:41;21.20;53.90
67870;DHT22;54673;52.262;6.830;2023-05-07T02:15:08;21.10;53.90
67870;DHT22;54673;52.262;6.830;2023-05-07T02:17:34;21.10;53.90
67870;DHT22;54673;52.262;6.830;2023-05-07T02:19:59;21.10;53.90
67870;DHT22;54673;52.262;6.830;2023-05-07T02:22:25;21.10;53.90
67870;DHT22;54673;52.262;6.830;2023-05-07T02:24:51;21.00;53.80
67870;DHT22;54673;52.262;6.830;2023-05-07T02:27:16;21.10;53.90
67870;DHT22;54673;52.262;6.830;2023-05-07T02:29:42;21.10;53.90
67870;DHT22;54673;52.262;6.830;2023-05-07T02:32:07;21.10;53.90
67870;DHT22;54673;52.262;6.830;2023-05-07T02:34:33;21.10;53.90
67870;DHT22;54673;52.262;6.830;2023-05-07T02:36:58;21.10;53.90
67870;DHT22;54673;52.262;6.830;2023-05-07T02:39:24;21.10;53.80
67870;DHT22;54673;52.262;6.830;2023-05-07T02:41:50;21.10;53.90
67870;DHT22;54673;52.262;6.830;2023-05-07T02:44:15;21.10;53.90
67870;DHT22;54673;52.262;6.830;2023-05-07T02:46:41;21.10;53.80
67870;DHT22;54673;52.262;6.830;2023-05-07T02:49:06;21.10;53.90
67870;DHT22;54673;52.262;6.830;2023-05-07T02:51:32;21.00;53.80
67870;DHT22;54673;52.262;6.830;2023-05-07T02:53:57;21.00;53.80
67870;DHT22;54673;52.262;6.830;2023-05-07T02:56:26;21.00;53.80
67870;DHT22;54673;52.262;6.830;2023-05-07T02:58:52;21.00;53.70
67870;DHT22;54673;52.262;6.830;2023-05-07T03:01:17;21.00;53.70
67870;DHT22;54673;52.262;6.830;2023-05-07T03:03:44;21.00;53.70
67870;DHT22;54673;52.262;6.830;2023-05-07T03:06:09;21.00;53.70
67870;DHT22;54673;52.262;6.830;2023-05-07T03:08:35;21.00;53.70
67870;DHT22;54673;52.262;6.830;2023-05-07T03:11:02;21.00;53.70
67870;DHT22;54673;52.262;6.830;2023-05-07T03:13:27;21.00;53.70
67870;DHT22;54673;52.262;6.830;2023-05-07T03:15:53;21.10;53.70
67870;DHT22;54673;52.262;6.830;2023-05-07T03:18:18;21.00;53.70
67870;DHT22;54673;52.262;6.830;2023-05-07T03:20:44;21.00;53.70
67870;DHT22;54673;52.262;6.830;2023-05-07T03:23:09;21.00;53.70
67870;DHT22;54673;52.262;6.830;2023-05-07T03:25:35;21.00;53.60
67870;DHT22;54673;52.262;6.830;2023-05-07T03:28:01;21.00;53.50
67870;DHT22;54673;52.262;6.830;2023-05-07T03:30:26;21.00;53.50
67870;DHT22;54673;52.262;6.830;2023-05-07T03:32:52;21.00;53.50
67870;DHT22;54673;52.262;6.830;2023-05-07T03:35:17;21.00;53.50
67870;DHT22;54673;52.262;6.830;2023-05-07T03:37:43;21.00;53.50
67870;DHT22;54673;52.262;6.830;2023-05-07T03:40:09;21.00;53.50
67870;DHT22;54673;52.262;6.830;2023-05-07T03:42:35;21.00;53.40
67870;DHT22;54673;52.262;6.830;2023-05-07T03:45:01;21.00;53.40
67870;DHT22;54673;52.262;6.830;2023-05-07T03:47:27;21.00;53.50
67870;DHT22;54673;52.262;6.830;2023-05-07T03:49:52;21.00;53.40
67870;DHT22;54673;52.262;6.830;2023-05-07T03:52:19;21.00;53.40
67870;DHT22;54673;52.262;6.830;2023-05-07T03:54:49;21.00;53.40
67870;DHT22;54673;52.262;6.830;2023-05-07T03:57:14;21.00;53.40
67870;DHT22;54673;52.262;6.830;2023-05-07T03:59:40;21.00;53.30
67870;DHT22;54673;52.262;6.830;2023-05-07T04:02:06;21.00;53.40
67870;DHT22;54673;52.262;6.830;2023-05-07T04:04:31;20.90;53.30
67870;DHT22;54673;52.262;6.830;2023-05-07T04:06:58;21.00;53.30
67870;DHT22;54673;52.262;6.830;2023-05-07T04:09:24;21.00;53.30
67870;DHT22;54673;52.262;6.830;2023-05-07T04:11:50;21.00;53.30
67870;DHT22;54673;52.262;6.830;2023-05-07T04:14:16;20.90;53.20
67870;DHT22;54673;52.262;6.830;2023-05-07T04:16:41;21.00;53.20
67870;DHT22;54673;52.262;6.830;2023-05-07T04:19:07;21.00;53.20
67870;DHT22;54673;52.262;6.830;2023-05-07T04:21:32;20.90;53.10
67870;DHT22;54673;52.262;6.830;2023-05-07T04:23:58;20.90;53.10
67870;DHT22;54673;52.262;6.830;2023-05-07T04:26:23;20.90;53.10
67870;DHT22;54673;52.262;6.830;2023-05-07T04:28:49;20.90;53.10
67870;DHT22;54673;52.262;6.830;2023-05-07T04:31:15;20.90;53.00
67870;DHT22;54673;52.262;6.830;2023-05-07T04:33:41;20.90;53.10
67870;DHT22;54673;52.262;6.830;2023-05-07T04:36:06;20.90;53.00
67870;DHT22;54673;52.262;6.830;2023-05-07T04:38:32;20.90;53.00
67870;DHT22;54673;52.262;6.830;2023-05-07T04:41:03;20.90;52.90
67870;DHT22;54673;52.262;6.830;2023-05-07T04:43:28;20.90;52.90
67870;DHT22;54673;52.262;6.830;2023-05-07T04:45:54;20.90;53.00
67870;DHT22;54673;52.262;6.830;2023-05-07T04:48:19;20.90;52.90
67870;DHT22;54673;52.262;6.830;2023-05-07T04:50:49;20.90;52.80
67870;DHT22;54673;52.262;6.830;2023-05-07T04:53:15;20.90;52.80
67870;DHT22;54673;52.262;6.830;2023-05-07T04:55:41;20.90;52.80
67870;DHT22;54673;52.262;6.830;2023-05-07T04:58:07;20.90;52.80
67870;DHT22;54673;52.262;6.830;2023-05-07T05:00:33;20.90;52.80
67870;DHT22;54673;52.262;6.830;2023-05-07T05:02:59;20.90;52.80
67870;DHT22;54673;52.262;6.830;2023-05-07T05:05:24;20.90;52.70
67870;DHT22;54673;52.262;6.830;2023-05-07T05:07:50;20.90;52.70
67870;DHT22;54673;52.262;6.830;2023-05-07T05:10:17;20.90;52.70
67870;DHT22;54673;52.262;6.830;2023-05-07T05:12:42;20.80;52.60
67870;DHT22;54673;52.262;6.830;2023-05-07T05:15:08;20.90;52.60
67870;DHT22;54673;52.262;6.830;2023-05-07T05:17:35;20.90;52.60
67870;DHT22;54673;52.262;6.830;2023-05-07T05:20:02;20.90;52.60
67870;DHT22;54673;52.262;6.830;2023-05-07T05:22:27;20.90;52.50
67870;DHT22;54673;52.262;6.830;2023-05-07T05:24:56;20.80;52.50
67870;DHT22;54673;52.262;6.830;2023-05-07T05:27:21;20.80;52.50
67870;DHT22;54673;52.262;6.830;2023-05-07T05:29:47;20.90;52.50
67870;DHT22;54673;52.262;6.830;2023-05-07T05:32:12;20.90;52.50
67870;DHT22;54673;52.262;6.830;2023-05-07T05:34:38;20.80;52.40
67870;DHT22;54673;52.262;6.830;2023-05-07T05:37:03;20.90;52.40
67870;DHT22;54673;52.262;6.830;2023-05-07T05:39:29;20.90;52.40
67870;DHT22;54673;52.262;6.830;2023-05-07T05:41:55;20.90;52.40
67870;DHT22;54673;52.262;6.830;2023-05-07T05:44:20;20.80;52.30
67870;DHT22;54673;52.262;6.830;2023-05-07T05:46:46;20.90;52.40
67870;DHT22;54673;52.262;6.830;2023-05-07T05:49:11;20.90;52.40
67870;DHT22;54673;52.262;6.830;2023-05-07T05:51:37;20.90;52.40
67870;DHT22;54673;52.262;6.830;2023-05-07T05:54:03;20.80;52.30
67870;DHT22;54673;52.262;6.830;2023-05-07T05:56:28;20.90;52.30
67870;DHT22;54673;52.262;6.830;2023-05-07T05:58:54;20.90;52.20
67870;DHT22;54673;52.262;6.830;2023-05-07T06:01:19;20.90;52.20
67870;DHT22;54673;52.262;6.830;2023-05-07T06:03:45;20.90;52.30
67870;DHT22;54673;52.262;6.830;2023-05-07T06:06:10;20.90;52.20
67870;DHT22;54673;52.262;6.830;2023-05-07T06:08:36;20.90;52.20
67870;DHT22;54673;52.262;6.830;2023-05-07T06:11:02;20.90;52.30
67870;DHT22;54673;52.262;6.830;2023-05-07T06:13:28;20.90;52.20
67870;DHT22;54673;52.262;6.830;2023-05-07T06:15:53;20.90;52.20
67870;DHT22;54673;52.262;6.830;2023-05-07T06:18:19;20.90;52.20
67870;DHT22;54673;52.262;6.830;2023-05-07T06:20:44;20.90;52.20
67870;DHT22;54673;52.262;6.830;2023-05-07T06:23:10;20.90;52.20
67870;DHT22;54673;52.262;6.830;2023-05-07T06:25:35;20.90;52.10
67870;DHT22;54673;52.262;6.830;2023-05-07T06:28:01;20.90;52.10
67870;DHT22;54673;52.262;6.830;2023-05-07T06:30:26;20.90;52.20
67870;DHT22;54673;52.262;6.830;2023-05-07T06:32:52;20.90;52.20
67870;DHT22;54673;52.262;6.830;2023-05-07T06:35:18;20.90;52.20
67870;DHT22;54673;52.262;6.830;2023-05-07T06:37:44;20.80;52.10
67870;DHT22;54673;52.262;6.830;2023-05-07T06:40:10;20.90;52.10
67870;DHT22;54673;52.262;6.830;2023-05-07T06:42:36;20.90;52.10
67870;DHT22;54673;52.262;6.830;2023-05-07T06:45:02;20.80;52.10
67870;DHT22;54673;52.262;6.830;2023-05-07T06:47:28;20.90;52.10
67870;DHT22;54673;52.262;6.830;2023-05-07T06:49:54;20.90;52.20
67870;DHT22;54673;52.262;6.830;2023-05-07T06:52:19;20.90;52.10
67870;DHT22;54673;52.262;6.830;2023-05-07T06:54:45;20.90;52.10
67870;DHT22;54673;52.262;6.830;2023-05-07T06:57:10;20.80;52.10
67870;DHT22;54673;52.262;6.830;2023-05-07T06:59:36;20.80;52.00
67870;DHT22;54673;52.262;6.830;2023-05-07T07:02:01;20.90;52.00
67870;DHT22;54673;52.262;6.830;2023-05-07T07:04:27;20.90;52.00
67870;DHT22;54673;52.262;6.830;2023-05-07T07:06:54;20.80;52.00
67870;DHT22;54673;52.262;6.830;2023-05-07T07:09:19;20.80;51.90
67870;DHT22;54673;52.262;6.830;2023-05-07T07:11:45;20.90;51.90
67870;DHT22;54673;52.262;6.830;2023-05-07T07:14:10;20.90;52.00
67870;DHT22;54673;52.262;6.830;2023-05-07T07:16:36;20.90;51.90
67870;DHT22;54673;52.262;6.830;2023-05-07T07:19:02;20.90;51.80
67870;DHT22;54673;52.262;6.830;2023-05-07T07:21:27;20.90;51.90
67870;DHT22;54673;52.262;6.830;2023-05-07T07:23:53;20.90;51.90
67870;DHT22;54673;52.262;6.830;2023-05-07T07:26:18;20.90;51.90
67870;DHT22;54673;52.262;6.830;2023-05-07T07:28:45;20.90;51.90
67870;DHT22;54673;52.262;6.830;2023-05-07T07:31:10;20.90;51.90
67870;DHT22;54673;52.262;6.830;2023-05-07T07:33:36;20.80;51.90
67870;DHT22;54673;52.262;6.830;2023-05-07T07:36:02;20.90;51.80
67870;DHT22;54673;52.262;6.830;2023-05-07T07:38:28;20.90;51.80
67870;DHT22;54673;52.262;6.830;2023-05-07T07:40:53;20.90;51.80
67870;DHT22;54673;52.262;6.830;2023-05-07T07:43:19;20.80;51.80
67870;DHT22;54673;52.262;6.830;2023-05-07T07:45:44;20.90;51.80
67870;DHT22;54673;52.262;6.830;2023-05-07T07:48:11;20.90;51.80
67870;DHT22;54673;52.262;6.830;2023-05-07T07:50:37;20.80;52.70
67870;DHT22;54673;52.262;6.830;2023-05-07T07:53:03;20.90;51.80
67870;DHT22;54673;52.262;6.830;2023-05-07T07:55:28;20.90;51.80
67870;DHT22;54673;52.262;6.830;2023-05-07T07:57:54;20.80;51.80
67870;DHT22;54673;52.262;6.830;2023-05-07T08:00:19;20.90;51.80
67870;DHT22;54673;52.262;6.830;2023-05-07T08:02:45;20.90;51.80
67870;DHT22;54673;52.262;6.830;2023-05-07T08:05:11;20.90;51.80
67870;DHT22;54673;52.262;6.830;2023-05-07T08:07:36;20.90;51.80
67870;DHT22;54673;52.262;6.830;2023-05-07T08:10:02;20.90;51.90
67870;DHT22;54673;52.262;6.830;2023-05-07T08:12:27;20.90;51.90
67870;DHT22;54673;52.262;6.830;2023-05-07T08:14:53;20.90;51.90
67870;DHT22;54673;52.262;6.830;2023-05-07T08:17:19;20.90;51.90
67870;DHT22;54673;52.262;6.830;2023-05-07T08:19:47;20.90;51.90
67870;DHT22;54673;52.262;6.830;2023-05-07T08:22:13;20.90;51.90
67870;DHT22;54673;52.262;6.830;2023-05-07T08:24:39;20.90;51.90
67870;DHT22;54673;52.262;6.830;2023-05-07T08:27:05;20.90;51.90
67870;DHT22;54673;52.262;6.830;2023-05-07T08:29:30;21.00;52.00
67870;DHT22;54673;52.262;6.830;2023-05-07T08:31:56;20.90;52.00
67870;DHT22;54673;52.262;6.830;2023-05-07T08:34:22;21.00;52.00
67870;DHT22;54673;52.262;6.830;2023-05-07T08:36:48;21.00;52.00
67870;DHT22;54673;52.262;6.830;2023-05-07T08:39:15;21.00;52.00
67870;DHT22;54673;52.262;6.830;2023-05-07T08:41:44;20.90;52.00
67870;DHT22;54673;52.262;6.830;2023-05-07T08:44:12;21.00;52.10
67870;DHT22;54673;52.262;6.830;2023-05-07T08:46:39;21.00;52.00
67870;DHT22;54673;52.262;6.830;2023-05-07T08:49:07;21.00;52.00
67870;DHT22;54673;52.262;6.830;2023-05-07T08:51:33;21.00;52.00
67870;DHT22;54673;52.262;6.830;2023-05-07T08:53:59;21.00;52.10
67870;DHT22;54673;52.262;6.830;2023-05-07T08:56:26;21.00;52.10
67870;DHT22;54673;52.262;6.830;2023-05-07T08:58:52;21.00;52.20
67870;DHT22;54673;52.262;6.830;2023-05-07T09:01:21;21.00;52.10
67870;DHT22;54673;52.262;6.830;2023-05-07T09:03:47;21.10;52.10
67870;DHT22;54673;52.262;6.830;2023-05-07T09:06:13;21.00;52.10
67870;DHT22;54673;52.262;6.830;2023-05-07T09:08:38;21.00;52.10
67870;DHT22;54673;52.262;6.830;2023-05-07T09:11:04;21.10;52.10
67870;DHT22;54673;52.262;6.830;2023-05-07T09:13:30;21.00;52.10
67870;DHT22;54673;52.262;6.830;2023-05-07T09:15:56;21.10;52.20
67870;DHT22;54673;52.262;6.830;2023-05-07T09:18:23;21.00;52.10
67870;DHT22;54673;52.262;6.830;2023-05-07T09:20:49;21.10;52.20
67870;DHT22;54673;52.262;6.830;2023-05-07T09:23:16;21.10;52.10
67870;DHT22;54673;52.262;6.830;2023-05-07T09:25:41;21.10;52.20
67870;DHT22;54673;52.262;6.830;2023-05-07T09:28:07;21.10;52.20
67870;DHT22;54673;52.262;6.830;2023-05-07T09:30:34;21.10;52.20
67870;DHT22;54673;52.262;6.830;2023-05-07T09:33:02;21.10;52.20
67870;DHT22;54673;52.262;6.830;2023-05-07T09:35:29;21.10;52.30
67870;DHT22;54673;52.262;6.830;2023-05-07T09:38:00;21.10;52.30
67870;DHT22;54673;52.262;6.830;2023-05-07T09:40:28;21.10;52.30
67870;DHT22;54673;52.262;6.830;2023-05-07T09:42:54;21.10;52.30
67870;DHT22;54673;52.262;6.830;2023-05-07T09:45:26;21.10;52.30
67870;DHT22;54673;52.262;6.830;2023-05-07T09:47:55;21.10;52.40
67870;DHT22;54673;52.262;6.830;2023-05-07T09:50:29;21.10;52.40
67870;DHT22;54673;52.262;6.830;2023-05-07T09:52:56;21.10;52.40
67870;DHT22;54673;52.262;6.830;2023-05-07T09:55:22;21.10;52.40
67870;DHT22;54673;52.262;6.830;2023-05-07T09:57:52;21.10;52.40
67870;DHT22;54673;52.262;6.830;2023-05-07T10:00:19;21.20;53.00
67870;DHT22;54673;52.262;6.830;2023-05-07T10:02:51;21.20;52.60
67870;DHT22;54673;52.262;6.830;2023-05-07T10:05:22;21.10;52.60
67870;DHT22;54673;52.262;6.830;2023-05-07T10:07:48;21.20;52.70
67870;DHT22;54673;52.262;6.830;2023-05-07T10:10:14;21.20;52.70
67870;DHT22;54673;52.262;6.830;2023-05-07T10:12:41;21.20;52.80
67870;DHT22;54673;52.262;6.830;2023-05-07T10:15:10;21.20;52.70
67870;DHT22;54673;52.262;6.830;2023-05-07T10:17:37;21.20;52.80
67870;DHT22;54673;52.262;6.830;2023-05-07T10:20:04;21.20;52.90
67870;DHT22;54673;52.262;6.830;2023-05-07T10:22:37;21.20;52.80
67870;DHT22;54673;52.262;6.830;2023-05-07T10:25:06;21.20;52.90
67870;DHT22;54673;52.262;6.830;2023-05-07T10:27:34;21.20;52.90
67870;DHT22;54673;52.262;6.830;2023-05-07T10:30:48;21.20;52.90
67870;DHT22;54673;52.262;6.830;2023-05-07T10:33:11;21.20;53.00
67870;DHT22;54673;52.262;6.830;2023-05-07T10:35:43;21.20;53.00
67870;DHT22;54673;52.262;6.830;2023-05-07T10:38:09;21.20;53.00
67870;DHT22;54673;52.262;6.830;2023-05-07T10:40:35;21.20;53.00
67870;DHT22;54673;52.262;6.830;2023-05-07T10:43:03;21.20;53.00
67870;DHT22;54673;52.262;6.830;2023-05-07T10:45:30;21.20;53.00
67870;DHT22;54673;52.262;6.830;2023-05-07T10:48:14;21.20;52.90
67870;DHT22;54673;52.262;6.830;2023-05-07T10:50:42;21.20;53.00
67870;DHT22;54673;52.262;6.830;2023-05-07T10:58:36;21.20;53.00
67870;DHT22;54673;52.262;6.830;2023-05-07T11:01:03;21.20;52.90
67870;DHT22;54673;52.262;6.830;2023-05-07T11:03:29;21.20;52.90
67870;DHT22;54673;52.262;6.830;2023-05-07T11:06:12;21.20;53.00
67870;DHT22;54673;52.262;6.830;2023-05-07T11:08:56;21.20;52.90
67870;DHT22;54673;52.262;6.830;2023-05-07T11:11:48;21.20;52.90
67870;DHT22;54673;52.262;6.830;2023-05-07T11:17:08;21.30;53.00
67870;DHT22;54673;52.262;6.830;2023-05-07T11:19:53;21.20;52.90
67870;DHT22;54673;52.262;6.830;2023-05-07T11:24:59;21.30;53.00
67870;DHT22;54673;52.262;6.830;2023-05-07T11:27:26;21.30;52.90
67870;DHT22;54673;52.262;6.830;2023-05-07T11:29:52;21.30;53.00
67870;DHT22;54673;52.262;6.830;2023-05-07T11:32:25;21.30;53.00
67870;DHT22;54673;52.262;6.830;2023-05-07T11:34:52;21.30;53.10
67870;DHT22;54673;52.262;6.830;2023-05-07T11:37:18;21.30;53.20
67870;DHT22;54673;52.262;6.830;2023-05-07T11:39:44;21.30;53.20
67870;DHT22;54673;52.262;6.830;2023-05-07T11:42:29;21.30;53.10
67870;DHT22;54673;52.262;6.830;2023-05-07T11:44:55;21.30;53.10
67870;DHT22;54673;52.262;6.830;2023-05-07T11:47:21;21.30;53.00
67870;DHT22;54673;52.262;6.830;2023-05-07T11:49:52;21.30;53.00
67870;DHT22;54673;52.262;6.830;2023-05-07T11:52:19;21.30;53.00
67870;DHT22;54673;52.262;6.830;2023-05-07T11:54:49;21.40;53.10
67870;DHT22;54673;52.262;6.830;2023-05-07T11:57:15;21.30;52.90
67870;DHT22;54673;52.262;6.830;2023-05-07T11:59:41;21.30;53.00
67870;DHT22;54673;52.262;6.830;2023-05-07T12:02:09;21.40;53.00
67870;DHT22;54673;52.262;6.830;2023-05-07T12:04:35;21.40;53.00
67870;DHT22;54673;52.262;6.830;2023-05-07T12:07:01;21.40;53.00
67870;DHT22;54673;52.262;6.830;2023-05-07T12:09:26;21.40;53.00
67870;DHT22;54673;52.262;6.830;2023-05-07T12:11:52;21.40;53.00
67870;DHT22;54673;52.262;6.830;2023-05-07T12:14:18;21.40;53.00
67870;DHT22;54673;52.262;6.830;2023-05-07T12:16:44;21.40;53.00
67870;DHT22;54673;52.262;6.830;2023-05-07T12:19:11;21.40;53.00
67870;DHT22;54673;52.262;6.830;2023-05-07T12:21:39;21.40;53.20
67870;DHT22;54673;52.262;6.830;2023-05-07T12:24:06;21.40;53.30
67870;DHT22;54673;52.262;6.830;2023-05-07T12:26:31;21.40;53.30
67870;DHT22;54673;52.262;6.830;2023-05-07T12:28:57;21.40;53.40
67870;DHT22;54673;52.262;6.830;2023-05-07T12:31:25;21.40;53.40
67870;DHT22;54673;52.262;6.830;2023-05-07T12:33:51;21.40;53.40
67870;DHT22;54673;52.262;6.830;2023-05-07T12:36:17;21.40;53.40
67870;DHT22;54673;52.262;6.830;2023-05-07T12:38:42;21.40;53.50
67870;DHT22;54673;52.262;6.830;2023-05-07T12:41:09;21.50;53.50
67870;DHT22;54673;52.262;6.830;2023-05-07T12:43:35;21.40;53.50
67870;DHT22;54673;52.262;6.830;2023-05-07T12:46:06;21.40;53.50
67870;DHT22;54673;52.262;6.830;2023-05-07T12:48:32;21.40;53.60
67870;DHT22;54673;52.262;6.830;2023-05-07T12:51:00;21.40;53.60
67870;DHT22;54673;52.262;6.830;2023-05-07T12:53:27;21.40;53.50
67870;DHT22;54673;52.262;6.830;2023-05-07T12:55:55;21.50;53.60
67870;DHT22;54673;52.262;6.830;2023-05-07T12:58:26;21.50;53.60
67870;DHT22;54673;52.262;6.830;2023-05-07T13:00:53;21.50;53.50
67870;DHT22;54673;52.262;6.830;2023-05-07T13:03:38;21.50;53.50
67870;DHT22;54673;52.262;6.830;2023-05-07T13:06:10;21.50;53.50
67870;DHT22;54673;52.262;6.830;2023-05-07T13:08:41;21.50;53.60
67870;DHT22;54673;52.262;6.830;2023-05-07T13:11:10;21.50;53.50
67870;DHT22;54673;52.262;6.830;2023-05-07T13:13:38;21.50;53.50
67870;DHT22;54673;52.262;6.830;2023-05-07T13:16:05;21.50;53.50
67870;DHT22;54673;52.262;6.830;2023-05-07T13:18:31;21.50;53.50
67870;DHT22;54673;52.262;6.830;2023-05-07T13:20:58;21.50;53.50
67870;DHT22;54673;52.262;6.830;2023-05-07T13:23:23;21.50;53.40
67870;DHT22;54673;52.262;6.830;2023-05-07T13:25:50;21.50;53.40
67870;DHT22;54673;52.262;6.830;2023-05-07T13:28:16;21.50;53.40
67870;DHT22;54673;52.262;6.830;2023-05-07T13:30:42;21.50;53.50
67870;DHT22;54673;52.262;6.830;2023-05-07T13:33:08;21.50;53.50
67870;DHT22;54673;52.262;6.830;2023-05-07T13:35:34;21.50;53.50
67870;DHT22;54673;52.262;6.830;2023-05-07T13:38:00;21.50;53.50
67870;DHT22;54673;52.262;6.830;2023-05-07T13:40:25;21.60;53.60
67870;DHT22;54673;52.262;6.830;2023-05-07T13:42:51;21.60;53.60
67870;DHT22;54673;52.262;6.830;2023-05-07T13:45:18;21.60;53.50
67870;DHT22;54673;52.262;6.830;2023-05-07T13:47:44;21.50;53.50
67870;DHT22;54673;52.262;6.830;2023-05-07T13:50:10;21.60;53.50
67870;DHT22;54673;52.262;6.830;2023-05-07T13:52:43;21.60;53.60
67870;DHT22;54673;52.262;6.830;2023-05-07T13:55:11;21.60;53.60
67870;DHT22;54673;52.262;6.830;2023-05-07T13:57:38;21.60;53.60
67870;DHT22;54673;52.262;6.830;2023-05-07T14:00:04;21.60;53.60
67870;DHT22;54673;52.262;6.830;2023-05-07T14:02:30;21.60;53.60
67870;DHT22;54673;52.262;6.830;2023-05-07T14:04:56;21.60;53.60
67870;DHT22;54673;52.262;6.830;2023-05-07T14:07:21;21.60;53.60
67870;DHT22;54673;52.262;6.830;2023-05-07T14:09:47;21.60;54.50
67870;DHT22;54673;52.262;6.830;2023-05-07T14:12:13;21.60;53.50
67870;DHT22;54673;52.262;6.830;2023-05-07T14:14:38;21.60;53.50
67870;DHT22;54673;52.262;6.830;2023-05-07T14:17:04;21.60;53.50
67870;DHT22;54673;52.262;6.830;2023-05-07T14:19:29;21.70;53.60
67870;DHT22;54673;52.262;6.830;2023-05-07T14:21:55;21.60;53.60
67870;DHT22;54673;52.262;6.830;2023-05-07T14:24:20;21.60;53.50
67870;DHT22;54673;52.262;6.830;2023-05-07T14:26:46;21.60;53.50
67870;DHT22;54673;52.262;6.830;2023-05-07T14:29:11;21.70;53.50
67870;DHT22;54673;52.262;6.830;2023-05-07T14:31:37;21.70;53.50
67870;DHT22;54673;52.262;6.830;2023-05-07T14:34:02;21.70;53.50
67870;DHT22;54673;52.262;6.830;2023-05-07T14:36:28;21.70;53.50
67870;DHT22;54673;52.262;6.830;2023-05-07T14:38:55;21.70;53.60
67870;DHT22;54673;52.262;6.830;2023-05-07T14:41:24;21.70;53.50
67870;DHT22;54673;52.262;6.830;2023-05-07T14:43:49;21.70;53.50
67870;DHT22;54673;52.262;6.830;2023-05-07T14:46:17;21.70;53.50
67870;DHT22;54673;52.262;6.830;2023-05-07T14:48:44;21.70;53.60
67870;DHT22;54673;52.262;6.830;2023-05-07T14:51:10;21.60;53.70
67870;DHT22;54673;52.262;6.830;2023-05-07T14:53:36;21.60;54.60
67870;DHT22;54673;52.262;6.830;2023-05-07T14:56:01;21.70;53.80
67870;DHT22;54673;52.262;6.830;2023-05-07T14:58:27;21.70;53.60
67870;DHT22;54673;52.262;6.830;2023-05-07T15:00:53;21.60;53.50
67870;DHT22;54673;52.262;6.830;2023-05-07T15:03:18;21.60;53.60
67870;DHT22;54673;52.262;6.830;2023-05-07T15:05:44;21.60;53.60
67870;DHT22;54673;52.262;6.830;2023-05-07T15:08:09;21.60;53.60
67870;DHT22;54673;52.262;6.830;2023-05-07T15:10:36;21.60;53.70
67870;DHT22;54673;52.262;6.830;2023-05-07T15:13:11;21.70;53.70
67870;DHT22;54673;52.262;6.830;2023-05-07T15:15:38;21.60;53.80
67870;DHT22;54673;52.262;6.830;2023-05-07T15:18:04;21.60;53.90
67870;DHT22;54673;52.262;6.830;2023-05-07T15:20:30;21.70;54.10
67870;DHT22;54673;52.262;6.830;2023-05-07T15:22:56;21.70;54.20
67870;DHT22;54673;52.262;6.830;2023-05-07T15:25:22;21.50;54.10
67870;DHT22;54673;52.262;6.830;2023-05-07T15:27:48;21.70;54.20
67870;DHT22;54673;52.262;6.830;2023-05-07T15:30:14;21.70;54.30
67870;DHT22;54673;52.262;6.830;2023-05-07T15:32:40;21.70;54.20
67870;DHT22;54673;52.262;6.830;2023-05-07T15:35:06;21.60;54.20
67870;DHT22;54673;52.262;6.830;2023-05-07T15:37:33;21.70;54.20